sensor_id;sensor_type;location;lat;lon;timestamp;temperature;humidity
22850;DHT22;11591;44.792;10.358;2023-07-24T04:36:28;24.30;98.10
22850;DHT22;11591;44.792;10.358;2023-07-24T04:38:54;24.50;97.10
22850;DHT22;11591;44.792;10.358;2023-07-24T04:41:20;24.50;97.10
22850;DHT22;11591;44.792;10.358;2023-07-24T04:43:46;24.50;96.90
22850;DHT22;11591;44.792;10.358;2023-07-24T04:46:12;24.50;96.80
22850;DHT22;11591;44.792;10.358;2023-07-24T04:48:38;24.30;96.70
22850;DHT22;11591;44.792;10.358;2023-07-24T04:51:03;24.30;97.00
22850;DHT22;11591;44.792;10.358;2023-07-24T04:53:29;24.30;97.10
22850;DHT22;11591;44.792;10.358;2023-07-24T04:55:55;24.40;97.20
22850;DHT22;11591;44.792;10.358;2023-07-24T04:58:21;24.40;97.10
22850;DHT22;11591;44.792;10.358;2023-07-24T05:00:46;24.30;97.30
22850;DHT22;11591;44.792;10.358;2023-07-24T05:03:12;24.20;97.80
22850;DHT22;11591;44.792;10.358;2023-07-24T05:05:38;24.20;98.10
22850;DHT22;11591;44.792;10.358;2023-07-24T05:08:04;24.40;98.80
22850;DHT22;11591;44.792;10.358;2023-07-24T05:10:35;24.30;99.90
22850;DHT22;11591;44.792;10.358;2023-07-24T05:13:01;23.80;99.90
22850;DHT22;11591;44.792;10.358;2023-07-24T05:15:27;23.80;99.90
22850;DHT22;11591;44.792;10.358;2023-07-24T05:17:52;24.00;99.90
22850;DHT22;11591;44.792;10.358;2023-07-24T05:20:18;24.10;99.90
22850;DHT22;11591;44.792;10.358;2023-07-24T05:22:44;24.10;99.80
22850;DHT22;11591;44.792;10.358;2023-07-24T05:25:10;24.10;99.90
22850;DHT22;11591;44.792;10.358;2023-07-24T05:27:36;24.10;99.90
22850;DHT22;11591;44.792;10.358;2023-07-24T05:30:03;24.10;99.90
22850;DHT22;11591;44.792;10.358;2023-07-24T05:32:29;24.10;99.90
22850;DHT22;11591;44.792;10.358;2023-07-24T05:34:55;24.10;99.90
22850;DHT22;11591;44.792;10.358;2023-07-24T05:37:21;24.10;99.90
22850;DHT22;11591;44.792;10.358;2023-07-24T05:39:47;23.90;99.90
22850;DHT22;11591;44.792;10.358;2023-07-24T05:42:12;23.80;99.90
22850;DHT22;11591;44.792;10.358;2023-07-24T05:44:38;23.70;99.90
22850;DHT22;11591;44.792;10.358;2023-07-24T05:47:04;23.30;99.90
22850;DHT22;11591;44.792;10.358;2023-07-24T05:49:30;23.20;99.90
22850;DHT22;11591;44.792;10.358;2023-07-24T05:51:55;23.20;99.90
22850;DHT22;11591;44.792;10.358;2023-07-24T05:54:22;23.30;99.90
22850;DHT22;11591;44.792;10.358;2023-07-24T05:56:48;23.20;99.90
22850;DHT22;11591;44.792;10.358;2023-07-24T05:59:14;23.20;99.90
22850;DHT22;11591;44.792;10.358;2023-07-24T06:01:40;23.30;99.90
22850;DHT22;11591;44.792;10.358;2023-07-24T06:04:06;23.40;99.90
22850;DHT22;11591;44.792;10.358;2023-07-24T06:06:33;23.60;99.90
22850;DHT22;11591;44.792;10.358;2023-07-24T06:08:59;23.80;99.90
22850;DHT22;11591;44.792;10.358;2023-07-24T06:11:25;24.10;99.90
22850;DHT22;11591;44.792;10.358;2023-07-24T06:13:52;24.20;99.90
22850;DHT22;11591;44.792;10.358;2023-07-24T06:16:18;24.30;99.90
22850;DHT22;11591;44.792;10.358;2023-07-24T06:18:44;24.30;99.90
22850;DHT22;11591;44.792;10.358;2023-07-24T06:21:10;24.30;99.90
22850;DHT22;11591;44.792;10.358;2023-07-24T06:23:36;24.40;99.90
22850;DHT22;11591;44.792;10.358;2023-07-24T06:26:02;24.50;99.90
22850;DHT22;11591;44.792;10.358;2023-07-24T06:28:27;24.60;99.90
22850;DHT22;11591;44.792;10.358;2023-07-24T06:30:54;24.70;99.90
22850;DHT22;11591;44.792;10.358;2023-07-24T06:33:20;24.80;99.90
22850;DHT22;11591;44.792;10.358;2023-07-24T06:35:49;24.80;99.90
22850;DHT22;11591;44.792;10.358;2023-07-24T06:38:15;24.80;99.90
22850;DHT22;11591;44.792;10.358;2023-07-24T06:40:41;24.80;99.90
22850;DHT22;11591;44.792;10.358;2023-07-24T06:43:07;24.70;99.90
22850;DHT22;11591;44.792;10.358;2023-07-24T06:45:32;24.60;99.90
22850;DHT22;11591;44.792;10.358;2023-07-24T06:47:58;24.50;99.90
22850;DHT22;11591;44.792;10.358;2023-07-24T06:50:24;24.50;99.90
22850;DHT22;11591;44.792;10.358;2023-07-24T06:52:50;24.60;99.90
22850;DHT22;11591;44.792;10.358;2023-07-24T06:55:17;24.70;99.90
22850;DHT22;11591;44.792;10.358;2023-07-24T06:57:43;24.80;99.90
22850;DHT22;11591;44.792;10.358;2023-07-24T07:00:09;24.90;99.90
22850;DHT22;11591;44.792;10.358;2023-07-24T07:02:38;24.90;99.90
22850;DHT22;11591;44.792;10.358;2023-07-24T07:05:04;25.00;99.90
22850;DHT22;11591;44.792;10.358;2023-07-24T07:07:30;25.10;99.90
22850;DHT22;11591;44.792;10.358;2023-07-24T07:09:56;25.20;99.90
22850;DHT22;11591;44.792;10.358;2023-07-24T07:12:22;25.30;99.90
22850;DHT22;11591;44.792;10.358;2023-07-24T07:14:47;25.30;99.90
22850;DHT22;11591;44.792;10.358;2023-07-24T07:17:13;25.30;99.90
22850;DHT22;11591;44.792;10.358;2023-07-24T07:19:39;25.30;99.90
22850;DHT22;11591;44.792;10.358;2023-07-24T07:22:05;25.30;99.90
22850;DHT22;11591;44.792;10.358;2023-07-24T07:24:31;25.40;99.90
22850;DHT22;11591;44.792;10.358;2023-07-24T07:26:57;25.50;99.90
22850;DHT22;11591;44.792;10.358;2023-07-24T07:29:22;25.50;99.90
22850;DHT22;11591;44.792;10.358;2023-07-24T07:31:48;25.60;99.90
22850;DHT22;11591;44.792;10.358;2023-07-24T07:34:14;25.60;99.90
22850;DHT22;11591;44.792;10.358;2023-07-24T07:36:40;25.60;99.90
22850;DHT22;11591;44.792;10.358;2023-07-24T07:39:24;25.40;99.90
22850;DHT22;11591;44.792;10.358;2023-07-24T07:41:50;25.30;99.90
22850;DHT22;11591;44.792;10.358;2023-07-24T07:44:15;25.40;99.90
22850;DHT22;11591;44.792;10.358;2023-07-24T07:46:41;25.50;99.90
22850;DHT22;11591;44.792;10.358;2023-07-24T07:49:07;25.60;99.90
22850;DHT22;11591;44.792;10.358;2023-07-24T07:51:35;25.60;99.90
22850;DHT22;11591;44.792;10.358;2023-07-24T07:54:01;25.80;99.90
22850;DHT22;11591;44.792;10.358;2023-07-24T07:56:27;25.90;99.90
22850;DHT22;11591;44.792;10.358;2023-07-24T07:58:53;26.00;99.90
22850;DHT22;11591;44.792;10.358;2023-07-24T08:01:20;26.00;99.90
22850;DHT22;11591;44.792;10.358;2023-07-24T08:03:45;26.00;99.90
22850;DHT22;11591;44.792;10.358;2023-07-24T08:06:11;26.10;99.90
22850;DHT22;11591;44.792;10.358;2023-07-24T08:08:38;26.00;99.90
22850;DHT22;11591;44.792;10.358;2023-07-24T08:11:05;26.00;99.90
22850;DHT22;11591;44.792;10.358;2023-07-24T08:13:32;25.90;99.90
22850;DHT22;11591;44.792;10.358;2023-07-24T08:15:57;25.90;99.90
22850;DHT22;11591;44.792;10.358;2023-07-24T08:18:25;25.70;99.90
22850;DHT22;11591;44.792;10.358;2023-07-24T08:20:51;25.60;99.90
22850;DHT22;11591;44.792;10.358;2023-07-24T08:23:17;25.80;99.90
22850;DHT22;11591;44.792;10.358;2023-07-24T08:25:55;25.90;99.90
22850;DHT22;11591;44.792;10.358;2023-07-24T08:28:21;26.00;99.90
22850;DHT22;11591;44.792;10.358;2023-07-24T08:30:58;26.20;99.90
22850;DHT22;11591;44.792;10.358;2023-07-24T08:33:24;26.30;99.90
22850;DHT22;11591;44.792;10.358;2023-07-24T08:38:26;26.40;99.90
22850;DHT22;11591;44.792;10.358;2023-07-24T08:41:07;26.40;99.90
22850;DHT22;11591;44.792;10.358;2023-07-24T08:43:35;26.40;99.90
22850;DHT22;11591;44.792;10.358;2023-07-24T08:46:02;26.40;99.90
22850;DHT22;11591;44.792;10.358;2023-07-24T08:48:31;26.50;99.90
22850;DHT22;11591;44.792;10.358;2023-07-24T08:51:00;26.60;99.90
22850;DHT22;11591;44.792;10.358;2023-07-24T08:53:26;26.70;99.90
22850;DHT22;11591;44.792;10.358;2023-07-24T08:55:54;26.80;99.90
22850;DHT22;11591;44.792;10.358;2023-07-24T08:58:20;26.90;99.90
22850;DHT22;11591;44.792;10.358;2023-07-24T09:00:46;26.80;99.90
22850;DHT22;11591;44.792;10.358;2023-07-24T09:03:12;26.50;99.90
22850;DHT22;11591;44.792;10.358;2023-07-24T09:05:37;26.50;99.90
22850;DHT22;11591;44.792;10.358;2023-07-24T09:08:03;26.50;99.90
22850;DHT22;11591;44.792;10.358;2023-07-24T09:10:29;26.50;99.90
22850;DHT22;11591;44.792;10.358;2023-07-24T09:12:55;26.40;99.90
22850;DHT22;11591;44.792;10.358;2023-07-24T09:15:21;26.30;99.90
22850;DHT22;11591;44.792;10.358;2023-07-24T09:17:51;26.20;99.90
22850;DHT22;11591;44.792;10.358;2023-07-24T09:20:19;26.00;99.90
22850;DHT22;11591;44.792;10.358;2023-07-24T09:22:52;25.90;99.90
22850;DHT22;11591;44.792;10.358;2023-07-24T09:25:18;25.90;99.90
22850;DHT22;11591;44.792;10.358;2023-07-24T09:27:44;25.80;99.90
22850;DHT22;11591;44.792;10.358;2023-07-24T09:30:14;25.90;99.90
22850;DHT22;11591;44.792;10.358;2023-07-24T09:32:40;25.90;99.90
22850;DHT22;11591;44.792;10.358;2023-07-24T09:35:19;26.00;99.90
22850;DHT22;11591;44.792;10.358;2023-07-24T09:37:46;26.10;99.90
22850;DHT22;11591;44.792;10.358;2023-07-24T09:40:14;26.20;99.90
22850;DHT22;11591;44.792;10.358;2023-07-24T09:42:40;26.30;99.90
22850;DHT22;11591;44.792;10.358;2023-07-24T09:45:07;26.40;99.90
22850;DHT22;11591;44.792;10.358;2023-07-24T09:47:36;26.10;99.90
22850;DHT22;11591;44.792;10.358;2023-07-24T09:50:05;26.00;99.90
22850;DHT22;11591;44.792;10.358;2023-07-24T09:52:31;26.10;99.90
22850;DHT22;11591;44.792;10.358;2023-07-24T09:55:11;26.30;99.90
22850;DHT22;11591;44.792;10.358;2023-07-24T09:57:38;26.40;99.90
22850;DHT22;11591;44.792;10.358;2023-07-24T10:00:05;26.60;99.90
22850;DHT22;11591;44.792;10.358;2023-07-24T10:02:34;26.70;99.90
22850;DHT22;11591;44.792;10.358;2023-07-24T10:05:00;26.90;99.90
22850;DHT22;11591;44.792;10.358;2023-07-24T10:07:27;27.10;99.90
22850;DHT22;11591;44.792;10.358;2023-07-24T10:09:53;27.30;99.90
22850;DHT22;11591;44.792;10.358;2023-07-24T10:12:20;27.50;99.90
22850;DHT22;11591;44.792;10.358;2023-07-24T10:14:46;27.60;99.90
22850;DHT22;11591;44.792;10.358;2023-07-24T10:17:13;27.70;99.90
22850;DHT22;11591;44.792;10.358;2023-07-24T10:19:42;27.80;99.90
22850;DHT22;11591;44.792;10.358;2023-07-24T10:22:18;27.90;99.90
22850;DHT22;11591;44.792;10.358;2023-07-24T10:24:47;27.80;99.90
22850;DHT22;11591;44.792;10.358;2023-07-24T10:27:13;27.80;99.90
22850;DHT22;11591;44.792;10.358;2023-07-24T10:29:39;27.70;99.90
22850;DHT22;11591;44.792;10.358;2023-07-24T10:32:16;27.80;99.90
22850;DHT22;11591;44.792;10.358;2023-07-24T10:34:43;27.80;99.90
22850;DHT22;11591;44.792;10.358;2023-07-24T10:37:09;27.80;99.90
22850;DHT22;11591;44.792;10.358;2023-07-24T10:39:39;27.90;99.90
22850;DHT22;11591;44.792;10.358;2023-07-24T10:42:10;27.90;99.90
22850;DHT22;11591;44.792;10.358;2023-07-24T10:44:37;28.00;99.90
22850;DHT22;11591;44.792;10.358;2023-07-24T10:47:03;28.10;99.90
22850;DHT22;11591;44.792;10.358;2023-07-24T10:49:29;28.20;99.90
22850;DHT22;11591;44.792;10.358;2023-07-24T10:51:58;28.20;99.90
22850;DHT22;11591;44.792;10.358;2023-07-24T10:54:24;28.30;99.90
22850;DHT22;11591;44.792;10.358;2023-07-24T10:56:57;28.40;99.90
22850;DHT22;11591;44.792;10.358;2023-07-24T10:59:23;28.50;99.90
22850;DHT22;11591;44.792;10.358;2023-07-24T11:01:49;28.60;99.90
22850;DHT22;11591;44.792;10.358;2023-07-24T11:04:15;28.70;99.90
22850;DHT22;11591;44.792;10.358;2023-07-24T11:06:41;28.70;99.90
22850;DHT22;11591;44.792;10.358;2023-07-24T11:09:07;28.60;99.90
22850;DHT22;11591;44.792;10.358;2023-07-24T11:11:35;28.60;99.90
22850;DHT22;11591;44.792;10.358;2023-07-24T11:14:02;28.70;99.90
22850;DHT22;11591;44.792;10.358;2023-07-24T11:16:28;28.70;99.90
22850;DHT22;11591;44.792;10.358;2023-07-24T11:18:57;28.70;99.90
22850;DHT22;11591;44.792;10.358;2023-07-24T11:21:23;28.80;99.90
22850;DHT22;11591;44.792;10.358;2023-07-24T11:23:51;28.90;99.90
22850;DHT22;11591;44.792;10.358;2023-07-24T11:26:21;28.90;99.90
22850;DHT22;11591;44.792;10.358;2023-07-24T11:28:48;29.00;99.90
22850;DHT22;11591;44.792;10.358;2023-07-24T11:31:14;29.10;99.90
22850;DHT22;11591;44.792;10.358;2023-07-24T11:33:41;29.20;99.90
22850;DHT22;11591;44.792;10.358;2023-07-24T11:36:08;29.30;99.90
22850;DHT22;11591;44.792;10.358;2023-07-24T11:38:34;29.30;99.90
22850;DHT22;11591;44.792;10.358;2023-07-24T11:41:02;29.30;99.90
22850;DHT22;11591;44.792;10.358;2023-07-24T11:43:28;29.20;99.90
22850;DHT22;11591;44.792;10.358;2023-07-24T11:45:53;29.30;99.90
22850;DHT22;11591;44.792;10.358;2023-07-24T11:48:24;29.20;99.90
22850;DHT22;11591;44.792;10.358;2023-07-24T11:50:56;29.10;99.90
22850;DHT22;11591;44.792;10.358;2023-07-24T11:55:51;29.30;99.90
22850;DHT22;11591;44.792;10.358;2023-07-24T11:58:17;29.50;99.90
22850;DHT22;11591;44.792;10.358;2023-07-24T12:00:44;29.40;99.90
22850;DHT22;11591;44.792;10.358;2023-07-24T12:03:10;29.50;99.90
22850;DHT22;11591;44.792;10.358;2023-07-24T12:05:43;29.60;99.90
22850;DHT22;11591;44.792;10.358;2023-07-24T12:08:10;29.70;99.90
22850;DHT22;11591;44.792;10.358;2023-07-24T12:10:40;29.80;99.90
22850;DHT22;11591;44.792;10.358;2023-07-24T12:13:06;29.80;99.90
22850;DHT22;11591;44.792;10.358;2023-07-24T12:15:32;29.90;99.90
22850;DHT22;11591;44.792;10.358;2023-07-24T12:18:04;29.90;99.90
22850;DHT22;11591;44.792;10.358;2023-07-24T12:20:30;30.00;99.90
22850;DHT22;11591;44.792;10.358;2023-07-24T12:22:56;30.00;99.90
22850;DHT22;11591;44.792;10.358;2023-07-24T12:25:22;30.10;99.90
22850;DHT22;11591;44.792;10.358;2023-07-24T12:27:48;30.10;99.90
22850;DHT22;11591;44.792;10.358;2023-07-24T12:30:14;30.20;99.90
22850;DHT22;11591;44.792;10.358;2023-07-24T12:32:40;30.20;99.90
22850;DHT22;11591;44.792;10.358;2023-07-24T12:35:08;30.20;99.90
22850;DHT22;11591;44.792;10.358;2023-07-24T12:37:34;30.30;99.90
22850;DHT22;11591;44.792;10.358;2023-07-24T12:40:00;30.40;99.90
22850;DHT22;11591;44.792;10.358;2023-07-24T12:42:26;30.40;99.90
22850;DHT22;11591;44.792;10.358;2023-07-24T12:44:52;30.40;99.90
22850;DHT22;11591;44.792;10.358;2023-07-24T12:47:18;30.40;99.90
22850;DHT22;11591;44.792;10.358;2023-07-24T12:49:44;30.40;99.90
22850;DHT22;11591;44.792;10.358;2023-07-24T12:52:10;30.40;99.90
22850;DHT22;11591;44.792;10.358;2023-07-24T12:54:36;30.50;99.90
22850;DHT22;11591;44.792;10.358;2023-07-24T12:57:02;30.50;99.90
22850;DHT22;11591;44.792;10.358;2023-07-24T12:59:29;30.60;99.90
22850;DHT22;11591;44.792;10.358;2023-07-24T13:01:55;30.70;99.90
22850;DHT22;11591;44.792;10.358;2023-07-24T13:04:22;30.70;99.90
22850;DHT22;11591;44.792;10.358;2023-07-24T13:06:48;30.80;99.90
22850;DHT22;11591;44.792;10.358;2023-07-24T13:09:13;30.80;99.90
22850;DHT22;11591;44.792;10.358;2023-07-24T13:11:39;30.90;99.90
22850;DHT22;11591;44.792;10.358;2023-07-24T13:14:05;30.90;99.90
22850;DHT22;11591;44.792;10.358;2023-07-24T13:16:31;31.00;99.90
22850;DHT22;11591;44.792;10.358;2023-07-24T13:18:57;31.00;99.90
22850;DHT22;11591;44.792;10.358;2023-07-24T13:21:23;31.00;99.90
22850;DHT22;11591;44.792;10.358;2023-07-24T13:23:49;31.10;99.90
22850;DHT22;11591;44.792;10.358;2023-07-24T13:26:15;31.00;99.90
22850;DHT22;11591;44.792;10.358;2023-07-24T13:28:41;31.00;99.90
22850;DHT22;11591;44.792;10.358;2023-07-24T13:31:18;31.00;99.90
22850;DHT22;11591;44.792;10.358;2023-07-24T13:33:44;31.00;99.90
22850;DHT22;11591;44.792;10.358;2023-07-24T13:36:10;31.00;99.90
22850;DHT22;11591;44.792;10.358;2023-07-24T13:38:36;31.10;99.90
22850;DHT22;11591;44.792;10.358;2023-07-24T13:41:03;31.20;99.90
22850;DHT22;11591;44.792;10.358;2023-07-24T13:43:30;31.30;99.90
22850;DHT22;11591;44.792;10.358;2023-07-24T13:45:56;31.40;99.90
22850;DHT22;11591;44.792;10.358;2023-07-24T13:48:23;31.50;99.90
22850;DHT22;11591;44.792;10.358;2023-07-24T13:50:49;31.50;99.90
22850;DHT22;11591;44.792;10.358;2023-07-24T13:53:15;31.50;99.90
22850;DHT22;11591;44.792;10.358;2023-07-24T13:55:41;31.50;99.90
22850;DHT22;11591;44.792;10.358;2023-07-24T13:58:07;31.50;99.90
22850;DHT22;11591;44.792;10.358;2023-07-24T14:00:33;31.60;99.90
22850;DHT22;11591;44.792;10.358;2023-07-24T14:02:59;31.60;99.90
22850;DHT22;11591;44.792;10.358;2023-07-24T14:05:24;31.60;99.90
22850;DHT22;11591;44.792;10.358;2023-07-24T14:07:50;31.70;99.90
22850;DHT22;11591;44.792;10.358;2023-07-24T14:10:16;31.70;99.90
22850;DHT22;11591;44.792;10.358;2023-07-24T14:12:42;31.70;99.90
22850;DHT22;11591;44.792;10.358;2023-07-24T14:15:08;31.80;99.90
22850;DHT22;11591;44.792;10.358;2023-07-24T14:17:34;31.90;99.90
22850;DHT22;11591;44.792;10.358;2023-07-24T14:20:03;31.80;99.90
22850;DHT22;11591;44.792;10.358;2023-07-24T14:22:29;31.80;99.90
22850;DHT22;11591;44.792;10.358;2023-07-24T14:24:55;31.90;99.90
22850;DHT22;11591;44.792;10.358;2023-07-24T14:27:21;31.90;99.90
22850;DHT22;11591;44.792;10.358;2023-07-24T14:29:46;32.00;99.90
22850;DHT22;11591;44.792;10.358;2023-07-24T14:32:12;32.20;99.90
22850;DHT22;11591;44.792;10.358;2023-07-24T14:34:38;32.30;99.90
22850;DHT22;11591;44.792;10.358;2023-07-24T14:37:04;32.60;99.90
22850;DHT22;11591;44.792;10.358;2023-07-24T14:39:30;32.90;99.90
22850;DHT22;11591;44.792;10.358;2023-07-24T14:41:56;33.40;99.90
22850;DHT22;11591;44.792;10.358;2023-07-24T14:44:22;33.70;99.90
22850;DHT22;11591;44.792;10.358;2023-07-24T14:46:47;33.90;99.90
22850;DHT22;11591;44.792;10.358;2023-07-24T14:49:13;34.30;99.90
22850;DHT22;11591;44.792;10.358;2023-07-24T14:51:39;34.60;99.90
22850;DHT22;11591;44.792;10.358;2023-07-24T14:54:05;34.80;99.90
22850;DHT22;11591;44.792;10.358;2023-07-24T14:56:32;35.00;99.90
22850;DHT22;11591;44.792;10.358;2023-07-24T14:58:58;35.10;99.90
22850;DHT22;11591;44.792;10.358;2023-07-24T15:01:24;35.20;99.90
22850;DHT22;11591;44.792;10.358;2023-07-24T15:03:53;35.20;99.90
22850;DHT22;11591;44.792;10.358;2023-07-24T15:06:19;35.20;99.90
22850;DHT22;11591;44.792;10.358;2023-07-24T15:08:45;35.20;99.90
22850;DHT22;11591;44.792;10.358;2023-07-24T15:11:11;35.30;99.90
22850;DHT22;11591;44.792;10.358;2023-07-24T15:13:38;35.30;99.90
22850;DHT22;11591;44.792;10.358;2023-07-24T15:16:04;35.40;99.90
22850;DHT22;11591;44.792;10.358;2023-07-24T15:18:30;35.20;99.90
22850;DHT22;11591;44.792;10.358;2023-07-24T15:20:57;34.90;99.90
22850;DHT22;11591;44.792;10.358;2023-07-24T15:23:23;34.50;99.90
22850;DHT22;11591;44.792;10.358;2023-07-24T15:25:48;34.20;99.90
22850;DHT22;11591;44.792;10.358;2023-07-24T15:28:14;34.20;99.90
22850;DHT22;11591;44.792;10.358;2023-07-24T15:30:40;34.30;99.90
22850;DHT22;11591;44.792;10.358;2023-07-24T15:33:06;34.50;99.90
22850;DHT22;11591;44.792;10.358;2023-07-24T15:35:32;34.40;99.90
22850;DHT22;11591;44.792;10.358;2023-07-24T15:37:58;34.50;99.90
22850;DHT22;11591;44.792;10.358;2023-07-24T15:40:24;34.50;99.90
22850;DHT22;11591;44.792;10.358;2023-07-24T15:42:49;34.60;99.90
22850;DHT22;11591;44.792;10.358;2023-07-24T15:45:15;34.50;99.90
22850;DHT22;11591;44.792;10.358;2023-07-24T15:47:41;34.40;99.90
22850;DHT22;11591;44.792;10.358;2023-07-24T15:50:07;34.50;99.90
22850;DHT22;11591;44.792;10.358;2023-07-24T15:52:33;34.40;99.90
22850;DHT22;11591;44.792;10.358;2023-07-24T15:54:59;34.30;99.90
22850;DHT22;11591;44.792;10.358;2023-07-24T15:57:25;34.20;99.90
22850;DHT22;11591;44.792;10.358;2023-07-24T15:59:51;34.00;99.90
22850;DHT22;11591;44.792;10.358;2023-07-24T16:02:16;34.00;99.90
22850;DHT22;11591;44.792;10.358;2023-07-24T16:04:43;34.10;99.90
22850;DHT22;11591;44.792;10.358;2023-07-24T16:07:10;34.20;99.90
22850;DHT22;11591;44.792;10.358;2023-07-24T16:09:36;34.40;99.90
22850;DHT22;11591;44.792;10.358;2023-07-24T16:12:02;34.50;99.90
22850;DHT22;11591;44.792;10.358;2023-07-24T16:14:28;34.70;99.90
22850;DHT22;11591;44.792;10.358;2023-07-24T16:16:54;34.90;99.80
22850;DHT22;11591;44.792;10.358;2023-07-24T16:19:20;34.90;99.70
22850;DHT22;11591;44.792;10.358;2023-07-24T16:21:48;34.80;99.80
22850;DHT22;11591;44.792;10.358;2023-07-24T16:24:15;34.80;99.90
22850;DHT22;11591;44.792;10.358;2023-07-24T16:26:47;34.80;99.90
22850;DHT22;11591;44.792;10.358;2023-07-24T16:29:13;34.70;99.90
22850;DHT22;11591;44.792;10.358;2023-07-24T16:31:39;34.60;99.90
22850;DHT22;11591;44.792;10.358;2023-07-24T16:34:05;34.40;99.90
22850;DHT22;11591;44.792;10.358;2023-07-24T16:36:31;34.30;99.90
22850;DHT22;11591;44.792;10.358;2023-07-24T16:38:59;34.20;99.90
22850;DHT22;11591;44.792;10.358;2023-07-24T16:41:25;34.10;99.90
22850;DHT22;11591;44.792;10.358;2023-07-24T16:43:50;34.00;99.90
22850;DHT22;11591;44.792;10.358;2023-07-24T16:46:16;34.00;99.90
22850;DHT22;11591;44.792;10.358;2023-07-24T16:48:42;34.10;99.90
22850;DHT22;11591;44.792;10.358;2023-07-24T16:51:08;34.10;99.90
22850;DHT22;11591;44.792;10.358;2023-07-24T16:53:34;34.20;99.90
22850;DHT22;11591;44.792;10.358;2023-07-24T16:56:00;34.10;99.90
22850;DHT22;11591;44.792;10.358;2023-07-24T16:58:25;34.10;99.90
22850;DHT22;11591;44.792;10.358;2023-07-24T17:00:51;34.00;99.90
22850;DHT22;11591;44.792;10.358;2023-07-24T17:03:17;34.00;99.90
22850;DHT22;11591;44.792;10.358;2023-07-24T17:05:43;34.00;99.90
22850;DHT22;11591;44.792;10.358;2023-07-24T17:08:09;33.90;99.90
22850;DHT22;11591;44.792;10.358;2023-07-24T17:10:43;33.80;99.90
22850;DHT22;11591;44.792;10.358;2023-07-24T17:13:09;33.90;99.90
22850;DHT22;11591;44.792;10.358;2023-07-24T17:15:35;33.80;99.90
22850;DHT22;11591;44.792;10.358;2023-07-24T17:18:01;33.80;99.90
22850;DHT22;11591;44.792;10.358;2023-07-24T17:20:27;33.80;99.90
22850;DHT22;11591;44.792;10.358;2023-07-24T17:22:53;33.80;99.90
22850;DHT22;11591;44.792;10.358;2023-07-24T17:25:19;33.70;99.90
22850;DHT22;11591;44.792;10.358;2023-07-24T17:27:45;33.60;99.90
22850;DHT22;11591;44.792;10.358;2023-07-24T17:30:11;33.70;99.90
22850;DHT22;11591;44.792;10.358;2023-07-24T17:32:37;33.60;99.90
22850;DHT22;11591;44.792;10.358;2023-07-24T17:35:04;33.60;99.90
22850;DHT22;11591;44.792;10.358;2023-07-24T17:37:29;33.50;99.90
22850;DHT22;11591;44.792;10.358;2023-07-24T17:40:03;33.40;99.90
22850;DHT22;11591;44.792;10.358;2023-07-24T17:42:29;33.30;99.90
22850;DHT22;11591;44.792;10.358;2023-07-24T17:44:56;33.20;99.90
22850;DHT22;11591;44.792;10.358;2023-07-24T17:47:22;33.20;99.90
22850;DHT22;11591;44.792;10.358;2023-07-24T17:49:47;33.10;99.90
22850;DHT22;11591;44.792;10.358;2023-07-24T17:52:13;33.00;99.90
22850;DHT22;11591;44.792;10.358;2023-07-24T17:54:41;33.00;99.90
22850;DHT22;11591;44.792;10.358;2023-07-24T17:57:15;32.90;99.90
22850;DHT22;11591;44.792;10.358;2023-07-24T17:59:41;32.90;99.90
22850;DHT22;11591;44.792;10.358;2023-07-24T18:02:08;32.80;99.90
22850;DHT22;11591;44.792;10.358;2023-07-24T18:04:37;32.70;99.90
22850;DHT22;11591;44.792;10.358;2023-07-24T18:07:03;32.60;99.90
22850;DHT22;11591;44.792;10.358;2023-07-24T18:09:29;32.60;99.90
22850;DHT22;11591;44.792;10.358;2023-07-24T18:11:55;32.40;99.90
22850;DHT22;11591;44.792;10.358;2023-07-24T18:14:20;32.40;99.90
22850;DHT22;11591;44.792;10.358;2023-07-24T18:16:48;32.30;99.90
22850;DHT22;11591;44.792;10.358;2023-07-24T18:19:14;32.20;99.90
22850;DHT22;11591;44.792;10.358;2023-07-24T18:21:40;32.00;99.90
22850;DHT22;11591;44.792;10.358;2023-07-24T18:24:06;31.90;99.90
22850;DHT22;11591;44.792;10.358;2023-07-24T18:26:33;31.80;99.90
22850;DHT22;11591;44.792;10.358;2023-07-24T18:28:59;31.60;99.90
22850;DHT22;11591;44.792;10.358;2023-07-24T18:31:26;31.50;99.90
22850;DHT22;11591;44.792;10.358;2023-07-24T18:33:52;31.40;99.90
22850;DHT22;11591;44.792;10.358;2023-07-24T18:36:18;31.30;99.90
22850;DHT22;11591;44.792;10.358;2023-07-24T18:38:44;31.20;99.90
22850;DHT22;11591;44.792;10.358;2023-07-24T18:41:10;31.20;99.90
22850;DHT22;11591;44.792;10.358;2023-07-24T18:43:36;31.10;99.90
22850;DHT22;11591;44.792;10.358;2023-07-24T18:46:02;31.00;99.90
22850;DHT22;11591;44.792;10.358;2023-07-24T18:48:28;30.90;99.90
22850;DHT22;11591;44.792;10.358;2023-07-24T18:50:54;30.90;99.90
22850;DHT22;11591;44.792;10.358;2023-07-24T18:53:20;30.80;99.90
22850;DHT22;11591;44.792;10.358;2023-07-24T18:55:45;30.70;99.90
22850;DHT22;11591;44.792;10.358;2023-07-24T18:58:12;30.70;99.90
22850;DHT22;11591;44.792;10.358;2023-07-24T19:00:38;30.70;99.90
22850;DHT22;11591;44.792;10.358;2023-07-24T19:03:04;30.60;99.90
22850;DHT22;11591;44.792;10.358;2023-07-24T19:05:30;30.50;99.90
22850;DHT22;11591;44.792;10.358;2023-07-24T19:07:56;30.40;99.90
22850;DHT22;11591;44.792;10.358;2023-07-24T19:10:21;30.30;99.90
22850;DHT22;11591;44.792;10.358;2023-07-24T19:12:47;30.30;99.90
22850;DHT22;11591;44.792;10.358;2023-07-24T19:15:13;30.20;99.90
22850;DHT22;11591;44.792;10.358;2023-07-24T19:17:39;30.20;99.90
22850;DHT22;11591;44.792;10.358;2023-07-24T19:20:11;30.20;99.90
22850;DHT22;11591;44.792;10.358;2023-07-24T19:22:37;30.20;99.90
22850;DHT22;11591;44.792;10.358;2023-07-24T19:25:04;30.20;99.90
22850;DHT22;11591;44.792;10.358;2023-07-24T19:27:31;30.20;99.90
22850;DHT22;11591;44.792;10.358;2023-07-24T19:29:58;30.10;99.90
22850;DHT22;11591;44.792;10.358;2023-07-24T19:32:24;30.10;99.90
22850;DHT22;11591;44.792;10.358;2023-07-24T19:34:51;30.00;99.90
22850;DHT22;11591;44.792;10.358;2023-07-24T19:37:17;30.00;99.90
22850;DHT22;11591;44.792;10.358;2023-07-24T19:39:42;30.00;99.90
22850;DHT22;11591;44.792;10.358;2023-07-24T19:42:08;30.00;99.90
22850;DHT22;11591;44.792;10.358;2023-07-24T19:44:35;30.00;99.90
22850;DHT22;11591;44.792;10.358;2023-07-24T19:47:02;30.00;99.90
22850;DHT22;11591;44.792;10.358;2023-07-24T19:49:27;30.00;99.90
22850;DHT22;11591;44.792;10.358;2023-07-24T19:51:55;29.90;99.90